Time;durP1;ratioP1;P1;durP2;ratioP2;P2;SDS_P1;SDS_P2;PMS_P1;PMS_P2;Temp;Humidity;BMP_temperature;BMP_pressure;BME280_temperature;BME280_humidity;BME280_pressure;Samples;Min_cycle;Max_cycle;Signal;HPM_P1;HPM_P2
2022/07/06 00:01:45;;;;;;;12.43;6.82;;;;;;;;;;4992837;28;20030;-69
2022/07/06 00:04:11;;;;;;;11.25;6.65;;;;;;;;;;4980539;28;20488;-70
2022/07/06 00:06:37;;;;;;;9.40;5.78;;;;;;;;;;4972750;28;20046;-69
2022/07/06 00:09:03;;;;;;;9.57;5.68;;;;;;;;;;4972962;28;20035;-68
2022/07/06 00:11:29;;;;;;;9.15;5.75;;;;;;;;;;4972993;28;20035;-67
2022/07/06 00:13:58;;;;;;;8.20;5.78;;;;;;;;;;4973066;28;20023;-70
2022/07/06 00:16:24;;;;;;;7.45;5.45;;;;;;;;;;4972680;28;20045;-70
2022/07/06 00:18:50;;;;;;;8.73;5.95;;;;;;;;;;4972853;28;20381;-73
2022/07/06 00:21:16;;;;;;;8.52;5.72;;;;;;;;;;4972447;28;20045;-68
2022/07/06 00:23:42;;;;;;;9.85;6.25;;;;;;;;;;4973172;28;20022;-68
2022/07/06 00:26:08;;;;;;;12.98;6.10;;;;;;;;;;4972824;28;20457;-69
2022/07/06 00:28:34;;;;;;;9.85;5.60;;;;;;;;;;4972942;28;20038;-72
2022/07/06 00:31:00;;;;;;;9.23;6.40;;;;;;;;;;4972147;28;20077;-67
2022/07/06 00:33:27;;;;;;;12.85;6.32;;;;;;;;;;4971597;28;20125;-68
2022/07/06 00:35:53;;;;;;;8.35;5.60;;;;;;;;;;4971172;28;20042;-70
2022/07/06 00:38:19;;;;;;;8.25;5.30;;;;;;;;;;4971299;28;20493;-67
2022/07/06 00:40:45;;;;;;;9.23;5.00;;;;;;;;;;4972292;28;20125;-68
2022/07/06 00:43:11;;;;;;;10.57;6.18;;;;;;;;;;4953277;28;20134;-68
2022/07/06 00:45:37;;;;;;;7.43;5.05;;;;;;;;;;4951772;29;20035;-68
2022/07/06 00:48:03;;;;;;;10.27;6.25;;;;;;;;;;4953053;28;20101;-72
2022/07/06 00:50:29;;;;;;;7.40;5.30;;;;;;;;;;4951967;28;20043;-71
2022/07/06 00:52:58;;;;;;;11.68;5.75;;;;;;;;;;4952068;29;20482;-68
2022/07/06 00:55:27;;;;;;;10.65;5.85;;;;;;;;;;4951826;28;20054;-69
2022/07/06 00:57:54;;;;;;;15.85;8.70;;;;;;;;;;4951887;28;20082;-68
2022/07/06 01:00:22;;;;;;;17.45;7.90;;;;;;;;;;4952215;28;20027;-67
2022/07/06 01:02:48;;;;;;;16.65;8.30;;;;;;;;;;4953162;28;20031;-68
2022/07/06 01:05:15;;;;;;;22.85;8.77;;;;;;;;;;4951595;29;20130;-69
2022/07/06 01:07:44;;;;;;;17.30;8.25;;;;;;;;;;4951983;28;20107;-73
2022/07/06 01:10:13;;;;;;;16.83;8.68;;;;;;;;;;4951462;28;20040;-67
2022/07/06 01:12:41;;;;;;;20.90;10.25;;;;;;;;;;4952594;28;20804;-70
2022/07/06 01:15:11;;;;;;;22.65;11.32;;;;;;;;;;4952773;28;20039;-67
2022/07/06 01:17:38;;;;;;;21.00;10.30;;;;;;;;;;4952071;29;20394;-68
2022/07/06 01:20:12;;;;;;;19.90;9.93;;;;;;;;;;4953198;28;20031;-71
2022/07/06 01:22:38;;;;;;;13.95;10.27;;;;;;;;;;4953123;28;20039;-69
2022/07/06 01:25:06;;;;;;;20.35;10.40;;;;;;;;;;4952579;28;20031;-69
2022/07/06 01:27:36;;;;;;;18.00;10.48;;;;;;;;;;4967217;28;20093;-69
2022/07/06 01:30:06;;;;;;;20.30;10.55;;;;;;;;;;4970560;28;20528;-68
2022/07/06 01:32:33;;;;;;;11.25;8.13;;;;;;;;;;4971903;28;20039;-70
2022/07/06 01:34:59;;;;;;;15.20;9.27;;;;;;;;;;4971916;28;20031;-68
2022/07/06 01:37:25;;;;;;;12.55;8.00;;;;;;;;;;4970721;28;20053;-74
2022/07/06 01:39:51;;;;;;;10.60;8.10;;;;;;;;;;4971611;28;20502;-71
2022/07/06 01:42:17;;;;;;;11.98;7.70;;;;;;;;;;4971088;28;20042;-69
2022/07/06 01:44:44;;;;;;;9.98;6.60;;;;;;;;;;4956421;28;20023;-71
2022/07/06 01:47:11;;;;;;;11.77;6.80;;;;;;;;;;4950352;28;20039;-69
2022/07/06 01:49:37;;;;;;;13.80;6.55;;;;;;;;;;4969498;28;20050;-68
2022/07/06 01:52:04;;;;;;;9.65;6.13;;;;;;;;;;4969327;28;20034;-69
2022/07/06 01:54:30;;;;;;;11.73;6.38;;;;;;;;;;4970515;28;20019;-71
2022/07/06 01:56:57;;;;;;;9.25;5.90;;;;;;;;;;4968605;28;20054;-70
2022/07/06 01:59:23;;;;;;;14.65;6.57;;;;;;;;;;4962752;28;20055;-69
2022/07/06 02:01:49;;;;;;;9.30;6.40;;;;;;;;;;4970202;28;20034;-69
2022/07/06 02:04:16;;;;;;;10.52;5.82;;;;;;;;;;4970735;28;20026;-69
2022/07/06 02:06:41;;;;;;;9.25;6.32;;;;;;;;;;4971628;28;20363;-72
2022/07/06 02:09:07;;;;;;;11.35;6.05;;;;;;;;;;4970788;28;20046;-69
2022/07/06 02:11:33;;;;;;;12.85;6.32;;;;;;;;;;4970301;28;20031;-70
2022/07/06 02:13:59;;;;;;;15.48;6.72;;;;;;;;;;4970833;28;20027;-70
2022/07/06 02:16:25;;;;;;;11.45;6.50;;;;;;;;;;4970658;28;20434;-72
2022/07/06 02:18:51;;;;;;;14.95;6.38;;;;;;;;;;4970919;28;20066;-69
2022/07/06 02:21:17;;;;;;;15.43;6.70;;;;;;;;;;4971697;28;20478;-69
2022/07/06 02:23:43;;;;;;;16.08;6.40;;;;;;;;;;4971774;28;20030;-71
2022/07/06 02:26:09;;;;;;;13.45;7.15;;;;;;;;;;4971825;28;20386;-73
2022/07/06 02:28:34;;;;;;;12.15;6.60;;;;;;;;;;4971712;28;20038;-69
2022/07/06 02:31:01;;;;;;;10.23;6.07;;;;;;;;;;4971165;28;20039;-71
2022/07/06 02:33:28;;;;;;;8.32;6.20;;;;;;;;;;4970475;28;20026;-68
2022/07/06 02:35:54;;;;;;;8.05;5.70;;;;;;;;;;4986585;28;20400;-70
2022/07/06 02:38:21;;;;;;;12.52;6.65;;;;;;;;;;4970548;28;20035;-71
2022/07/06 02:40:47;;;;;;;9.77;6.03;;;;;;;;;;4971579;28;20034;-71
2022/07/06 02:43:14;;;;;;;11.13;5.57;;;;;;;;;;4970343;28;20035;-74
2022/07/06 02:45:40;;;;;;;8.18;5.38;;;;;;;;;;4985956;28;20031;-69
2022/07/06 02:48:08;;;;;;;20.15;6.72;;;;;;;;;;4970415;28;20046;-70
2022/07/06 02:50:34;;;;;;;8.82;5.63;;;;;;;;;;4975271;28;20042;-67
2022/07/06 02:53:01;;;;;;;13.75;5.63;;;;;;;;;;4973561;28;20031;-72
2022/07/06 02:55:28;;;;;;;12.38;5.55;;;;;;;;;;4974053;28;20070;-74
2022/07/06 02:57:54;;;;;;;13.55;5.38;;;;;;;;;;4975170;28;20046;-73
2022/07/06 03:00:22;;;;;;;13.90;6.10;;;;;;;;;;4990134;28;20054;-68
2022/07/06 03:02:50;;;;;;;7.97;5.13;;;;;;;;;;4973369;28;20038;-69
2022/07/06 03:05:16;;;;;;;15.20;5.88;;;;;;;;;;4973483;28;20066;-68
2022/07/06 03:07:42;;;;;;;9.48;5.20;;;;;;;;;;4972740;28;20117;-71
2022/07/06 03:10:09;;;;;;;12.98;5.13;;;;;;;;;;4973755;28;20045;-69
2022/07/06 03:12:36;;;;;;;13.20;5.15;;;;;;;;;;4973050;28;20031;-73
2022/07/06 03:15:01;;;;;;;9.98;5.50;;;;;;;;;;4973243;28;20401;-70
2022/07/06 03:17:29;;;;;;;11.27;5.05;;;;;;;;;;4972467;28;20026;-72
2022/07/06 03:19:55;;;;;;;11.90;5.13;;;;;;;;;;4973165;28;20358;-71
2022/07/06 03:22:22;;;;;;;18.73;6.07;;;;;;;;;;4976610;28;20430;-72
2022/07/06 03:24:49;;;;;;;13.63;5.93;;;;;;;;;;4973744;28;20127;-74
2022/07/06 03:27:15;;;;;;;14.52;5.70;;;;;;;;;;4972453;28;20058;-72
2022/07/06 03:29:41;;;;;;;10.73;4.47;;;;;;;;;;4972406;28;20490;-73
2022/07/06 03:32:08;;;;;;;8.82;4.63;;;;;;;;;;4988832;28;20399;-74
2022/07/06 03:34:34;;;;;;;11.82;5.32;;;;;;;;;;4974285;28;20031;-72
2022/07/06 03:37:00;;;;;;;11.93;5.88;;;;;;;;;;4972233;28;20026;-72
2022/07/06 03:39:26;;;;;;;12.93;5.88;;;;;;;;;;4973798;28;20027;-71
2022/07/06 03:41:52;;;;;;;14.43;7.10;;;;;;;;;;4972333;28;20023;-70
2022/07/06 03:44:19;;;;;;;28.73;8.10;;;;;;;;;;4972527;28;20037;-71
2022/07/06 03:46:45;;;;;;;19.90;7.18;;;;;;;;;;4972405;28;20047;-74
2022/07/06 03:49:12;;;;;;;14.02;7.47;;;;;;;;;;4972734;28;20097;-72
2022/07/06 03:51:39;;;;;;;13.45;5.85;;;;;;;;;;4972859;28;20493;-72
2022/07/06 03:54:05;;;;;;;12.82;5.63;;;;;;;;;;4988592;28;20047;-69
2022/07/06 03:56:32;;;;;;;14.75;5.32;;;;;;;;;;4972018;28;20093;-71
2022/07/06 03:59:09;;;;;;;9.80;4.70;;;;;;;;;;4988707;28;20393;-69
2022/07/06 04:01:37;;;;;;;10.60;6.00;;;;;;;;;;4971706;28;20038;-70
2022/07/06 04:04:04;;;;;;;14.95;5.78;;;;;;;;;;4971846;28;20030;-70
2022/07/06 04:06:34;;;;;;;8.27;5.18;;;;;;;;;;4972993;28;20089;-69
2022/07/06 04:09:01;;;;;;;12.85;4.72;;;;;;;;;;4971665;28;20050;-68
2022/07/06 04:11:27;;;;;;;12.32;4.50;;;;;;;;;;4971828;28;20022;-70
2022/07/06 04:13:54;;;;;;;7.13;4.10;;;;;;;;;;4972462;28;20046;-70
2022/07/06 04:16:21;;;;;;;13.63;4.55;;;;;;;;;;4971946;28;20023;-69
2022/07/06 04:18:47;;;;;;;13.70;4.78;;;;;;;;;;4987975;28;20145;-69
2022/07/06 04:21:13;;;;;;;11.30;4.85;;;;;;;;;;4971447;28;20042;-71
2022/07/06 04:23:39;;;;;;;14.27;5.05;;;;;;;;;;4971913;28;20125;-72
2022/07/06 04:26:06;;;;;;;15.77;5.53;;;;;;;;;;4972049;28;20031;-69
2022/07/06 04:28:35;;;;;;;10.73;4.68;;;;;;;;;;4971559;28;20086;-70
2022/07/06 04:31:01;;;;;;;12.18;4.68;;;;;;;;;;4971080;28;20035;-69
2022/07/06 04:33:27;;;;;;;10.95;5.07;;;;;;;;;;4972691;28;20047;-69
2022/07/06 04:35:53;;;;;;;10.75;5.40;;;;;;;;;;4971486;28;20081;-70
2022/07/06 04:38:23;;;;;;;17.13;5.50;;;;;;;;;;4972633;28;20039;-70
2022/07/06 04:40:51;;;;;;;11.48;4.60;;;;;;;;;;4971548;28;20031;-71
2022/07/06 04:43:19;;;;;;;13.48;4.75;;;;;;;;;;4971092;28;20086;-69
2022/07/06 04:45:45;;;;;;;17.30;6.20;;;;;;;;;;4956904;28;20138;-70
2022/07/06 04:48:10;;;;;;;9.25;4.65;;;;;;;;;;4951330;29;20034;-72
2022/07/06 04:50:37;;;;;;;13.25;4.82;;;;;;;;;;4951507;29;20082;-74
2022/07/06 04:53:05;;;;;;;15.93;5.60;;;;;;;;;;4951781;29;20475;-71
2022/07/06 04:55:33;;;;;;;20.40;6.07;;;;;;;;;;4951520;29;20035;-70
2022/07/06 04:57:59;;;;;;;14.80;6.00;;;;;;;;;;4951241;29;20058;-71
2022/07/06 05:00:27;;;;;;;23.08;7.15;;;;;;;;;;4951338;29;20598;-73
2022/07/06 05:02:53;;;;;;;15.13;5.30;;;;;;;;;;4951412;29;20545;-74
2022/07/06 05:05:22;;;;;;;15.13;4.80;;;;;;;;;;4951464;29;20043;-69
2022/07/06 05:07:49;;;;;;;8.75;3.90;;;;;;;;;;4952242;29;20114;-69
2022/07/06 05:10:15;;;;;;;8.70;4.13;;;;;;;;;;4952830;29;20039;-68
2022/07/06 05:12:45;;;;;;;8.32;4.00;;;;;;;;;;4952258;28;20486;-71
2022/07/06 05:15:13;;;;;;;8.88;3.85;;;;;;;;;;4955660;29;20339;-68
2022/07/06 05:17:40;;;;;;;12.40;3.55;;;;;;;;;;4953839;29;20059;-69
2022/07/06 05:20:07;;;;;;;9.80;4.40;;;;;;;;;;4952721;29;20035;-70
2022/07/06 05:22:36;;;;;;;9.55;4.30;;;;;;;;;;4952786;29;20062;-74
2022/07/06 05:25:02;;;;;;;9.48;3.70;;;;;;;;;;4952736;29;20039;-68
2022/07/06 05:27:28;;;;;;;12.05;4.30;;;;;;;;;;4952927;29;20042;-68
2022/07/06 05:29:54;;;;;;;9.90;4.05;;;;;;;;;;4952809;29;20506;-72
2022/07/06 05:32:20;;;;;;;10.35;4.32;;;;;;;;;;4952561;29;20077;-72
2022/07/06 05:34:50;;;;;;;9.32;3.63;;;;;;;;;;4953221;29;20047;-69
2022/07/06 05:37:16;;;;;;;9.52;3.67;;;;;;;;;;4953108;29;20390;-71
2022/07/06 05:39:45;;;;;;;7.80;3.80;;;;;;;;;;4936985;29;20039;-75
2022/07/06 05:42:12;;;;;;;12.10;4.00;;;;;;;;;;4956426;28;20023;-73
2022/07/06 05:44:38;;;;;;;12.25;3.97;;;;;;;;;;4969000;28;20399;-72
2022/07/06 05:52:32;;;;;;;5.85;3.50;;;;;;;;;;4954285;29;20110;-72
2022/07/06 05:54:58;;;;;;;10.20;4.00;;;;;;;;;;4952828;29;20190;-73
2022/07/06 05:57:24;;;;;;;5.57;3.28;;;;;;;;;;4969604;28;20570;-73
2022/07/06 05:59:50;;;;;;;6.90;3.88;;;;;;;;;;4971889;28;20405;-72
2022/07/06 06:02:16;;;;;;;7.35;3.55;;;;;;;;;;4968536;28;20046;-75
2022/07/06 06:04:43;;;;;;;8.18;3.78;;;;;;;;;;4952072;29;20034;-70
2022/07/06 06:07:09;;;;;;;9.52;4.00;;;;;;;;;;4952084;29;20028;-69
2022/07/06 06:09:35;;;;;;;12.48;4.38;;;;;;;;;;4951886;29;20346;-76
2022/07/06 06:12:00;;;;;;;7.90;3.58;;;;;;;;;;4954543;28;20031;-72
2022/07/06 06:14:26;;;;;;;11.77;4.13;;;;;;;;;;4971533;28;20030;-70
2022/07/06 06:16:52;;;;;;;10.95;4.10;;;;;;;;;;4965227;28;20032;-70
2022/07/06 06:19:18;;;;;;;11.43;3.75;;;;;;;;;;4965857;28;20038;-69
2022/07/06 06:21:44;;;;;;;5.50;3.80;;;;;;;;;;4972824;28;20031;-73
2022/07/06 06:24:09;;;;;;;6.93;3.83;;;;;;;;;;4974690;28;20050;-75
2022/07/06 06:26:35;;;;;;;7.40;4.05;;;;;;;;;;4976568;28;20122;-76
2022/07/06 06:29:01;;;;;;;8.70;4.20;;;;;;;;;;4967567;28;20020;-74
2022/07/06 06:31:27;;;;;;;9.77;3.50;;;;;;;;;;4960645;28;20039;-67
2022/07/06 06:33:53;;;;;;;10.43;3.78;;;;;;;;;;4967731;28;20027;-70
2022/07/06 06:36:19;;;;;;;13.77;4.07;;;;;;;;;;4960395;28;20035;-68
2022/07/06 06:38:44;;;;;;;8.43;4.10;;;;;;;;;;4957016;28;20023;-76
2022/07/06 06:41:10;;;;;;;5.65;3.45;;;;;;;;;;4958873;28;20198;-76
2022/07/06 06:43:38;;;;;;;10.20;3.80;;;;;;;;;;4976210;28;20034;-76
2022/07/06 06:46:17;;;;;;;12.02;4.03;;;;;;;;;;4974754;28;20035;-78
2022/07/06 06:48:43;;;;;;;7.22;3.70;;;;;;;;;;4976154;28;20038;-74
2022/07/06 06:51:09;;;;;;;9.27;3.50;;;;;;;;;;4986575;28;20022;-75
2022/07/06 06:53:35;;;;;;;11.73;3.92;;;;;;;;;;4995354;28;20041;-76
2022/07/06 06:56:01;;;;;;;5.78;3.33;;;;;;;;;;4989720;28;20046;-75
2022/07/06 06:58:27;;;;;;;7.60;3.55;;;;;;;;;;4968879;28;20055;-75
2022/07/06 07:00:52;;;;;;;12.20;3.97;;;;;;;;;;4956326;28;20031;-73
2022/07/06 07:03:18;;;;;;;7.80;3.50;;;;;;;;;;4956159;28;20390;-74
2022/07/06 07:05:44;;;;;;;10.10;4.90;;;;;;;;;;4956500;28;20031;-77
2022/07/06 07:08:10;;;;;;;6.97;3.35;;;;;;;;;;4955520;28;20376;-73
2022/07/06 07:10:36;;;;;;;9.57;3.70;;;;;;;;;;4955923;28;20031;-75
2022/07/06 07:13:02;;;;;;;11.40;4.00;;;;;;;;;;4960792;28;20038;-76
2022/07/06 07:15:28;;;;;;;9.52;3.60;;;;;;;;;;4974794;28;20385;-80
2022/07/06 07:17:53;;;;;;;10.05;4.55;;;;;;;;;;4974865;28;20054;-76
2022/07/06 07:20:19;;;;;;;7.90;3.67;;;;;;;;;;4975381;28;20019;-74
2022/07/06 07:22:45;;;;;;;5.63;2.95;;;;;;;;;;4974959;28;20041;-77
2022/07/06 07:25:11;;;;;;;7.75;3.20;;;;;;;;;;4963715;28;20110;-75
2022/07/06 07:27:37;;;;;;;8.90;3.60;;;;;;;;;;4967263;28;20039;-78
2022/07/06 07:30:04;;;;;;;9.18;3.03;;;;;;;;;;4975113;28;20031;-76
2022/07/06 07:32:30;;;;;;;7.75;3.42;;;;;;;;;;4974617;28;20073;-76
2022/07/06 07:34:56;;;;;;;10.05;3.08;;;;;;;;;;4963156;28;20062;-74
2022/07/06 07:37:21;;;;;;;8.30;6.22;;;;;;;;;;4955880;28;20032;-77
2022/07/06 07:39:47;;;;;;;7.03;3.40;;;;;;;;;;4960548;28;20338;-78
2022/07/06 07:42:13;;;;;;;9.02;3.58;;;;;;;;;;4964369;28;20339;-78
2022/07/06 07:44:40;;;;;;;11.07;3.60;;;;;;;;;;4955495;29;20551;-76
2022/07/06 07:47:06;;;;;;;7.32;3.35;;;;;;;;;;4961942;28;20058;-79
2022/07/06 07:49:32;;;;;;;7.63;3.50;;;;;;;;;;4973184;28;20027;-76
2022/07/06 07:51:58;;;;;;;6.30;3.30;;;;;;;;;;4973908;28;20084;-77
2022/07/06 07:54:24;;;;;;;8.63;3.30;;;;;;;;;;4975637;28;20030;-75
2022/07/06 07:56:50;;;;;;;6.55;3.30;;;;;;;;;;4992835;28;20101;-76
2022/07/06 07:59:16;;;;;;;5.65;2.80;;;;;;;;;;4990034;28;20030;-77
2022/07/06 08:01:42;;;;;;;6.53;3.30;;;;;;;;;;4972198;28;20039;-74
2022/07/06 08:04:07;;;;;;;6.20;3.00;;;;;;;;;;4973278;28;20027;-74
2022/07/06 08:06:33;;;;;;;5.55;3.22;;;;;;;;;;4974238;28;20375;-76
2022/07/06 08:08:59;;;;;;;8.00;3.13;;;;;;;;;;4970368;28;20073;-74
2022/07/06 08:11:25;;;;;;;7.70;3.42;;;;;;;;;;4969575;28;20089;-76
2022/07/06 08:13:51;;;;;;;8.60;3.47;;;;;;;;;;4972048;28;20023;-76
2022/07/06 08:16:17;;;;;;;10.60;3.15;;;;;;;;;;4972687;28;20033;-74
2022/07/06 08:18:43;;;;;;;8.80;3.47;;;;;;;;;;4972590;28;20441;-72
2022/07/06 08:21:09;;;;;;;9.18;3.50;;;;;;;;;;4972867;28;20037;-74
2022/07/06 08:23:34;;;;;;;10.10;3.20;;;;;;;;;;4973337;28;20474;-76
2022/07/06 08:26:02;;;;;;;10.23;3.60;;;;;;;;;;4970469;28;20097;-77
2022/07/06 08:28:28;;;;;;;7.57;3.25;;;;;;;;;;4971423;28;20478;-77
2022/07/06 08:30:54;;;;;;;5.07;3.10;;;;;;;;;;4972189;28;20031;-78
2022/07/06 08:33:20;;;;;;;9.68;3.10;;;;;;;;;;4972660;28;20744;-78
2022/07/06 08:35:46;;;;;;;5.88;3.15;;;;;;;;;;4965204;28;20044;-78
2022/07/06 08:38:12;;;;;;;6.68;3.05;;;;;;;;;;4960212;28;20123;-78
2022/07/06 08:40:40;;;;;;;11.00;3.75;;;;;;;;;;4952920;28;20042;-79
2022/07/06 08:43:06;;;;;;;11.05;3.67;;;;;;;;;;4954596;28;20046;-72
2022/07/06 08:45:34;;;;;;;10.38;3.65;;;;;;;;;;4962281;28;20490;-75
2022/07/06 08:48:05;;;;;;;6.88;3.85;;;;;;;;;;4967451;28;20161;-78
2022/07/06 08:50:33;;;;;;;8.57;3.35;;;;;;;;;;4971998;28;20031;-76
2022/07/06 08:52:59;;;;;;;12.48;3.45;;;;;;;;;;4972100;28;20117;-76
2022/07/06 08:55:27;;;;;;;10.13;3.40;;;;;;;;;;4972137;28;20158;-76
2022/07/06 08:57:55;;;;;;;6.03;3.58;;;;;;;;;;4972113;28;20039;-79
2022/07/06 09:00:22;;;;;;;8.27;3.53;;;;;;;;;;4972818;28;20497;-77
2022/07/06 09:02:50;;;;;;;6.97;3.50;;;;;;;;;;4969095;28;20663;-73
2022/07/06 09:05:17;;;;;;;8.48;3.20;;;;;;;;;;4953130;28;20093;-80
2022/07/06 09:07:48;;;;;;;6.78;3.50;;;;;;;;;;4961093;28;20117;-84
2022/07/06 09:10:17;;;;;;;7.30;3.22;;;;;;;;;;4971657;28;20043;-77
2022/07/06 09:12:43;;;;;;;10.05;3.70;;;;;;;;;;4971988;28;20090;-79
2022/07/06 09:15:09;;;;;;;5.93;3.28;;;;;;;;;;4966272;28;20482;-73
2022/07/06 09:17:39;;;;;;;8.50;3.13;;;;;;;;;;4952456;28;20028;-79
2022/07/06 09:20:10;;;;;;;7.68;3.00;;;;;;;;;;4953338;29;20490;-80
2022/07/06 09:22:37;;;;;;;10.20;3.53;;;;;;;;;;4953113;28;20110;-79
2022/07/06 09:25:09;;;;;;;5.20;3.40;;;;;;;;;;4952891;28;20019;-82
2022/07/06 09:27:43;;;;;;;14.82;3.65;;;;;;;;;;4952892;29;20113;-76
2022/07/06 09:30:10;;;;;;;9.45;3.45;;;;;;;;;;4964530;28;20445;-77
2022/07/06 09:32:41;;;;;;;7.65;3.13;;;;;;;;;;4956717;28;20106;-73
2022/07/06 09:35:19;;;;;;;7.20;3.67;;;;;;;;;;4953029;28;20066;-74
2022/07/06 09:37:47;;;;;;;12.95;3.83;;;;;;;;;;4952806;29;20042;-75
2022/07/06 09:40:19;;;;;;;9.15;3.50;;;;;;;;;;4952150;28;20085;-73
2022/07/06 09:42:45;;;;;;;5.95;3.22;;;;;;;;;;4968074;28;20035;-76
2022/07/06 09:45:11;;;;;;;6.55;3.40;;;;;;;;;;4965481;28;20042;-73
2022/07/06 09:47:37;;;;;;;5.50;3.22;;;;;;;;;;4962623;28;20426;-80
2022/07/06 09:50:06;;;;;;;8.85;3.88;;;;;;;;;;4957830;28;20031;-76
2022/07/06 09:52:35;;;;;;;8.10;3.25;;;;;;;;;;4952603;28;20439;-75
2022/07/06 09:55:06;;;;;;;10.45;3.60;;;;;;;;;;4951865;28;20129;-74
2022/07/06 09:57:32;;;;;;;4.80;3.60;;;;;;;;;;4952983;28;20040;-74
2022/07/06 09:59:58;;;;;;;9.07;3.70;;;;;;;;;;4956014;28;20457;-73
2022/07/06 10:02:26;;;;;;;7.50;3.40;;;;;;;;;;4956373;28;20031;-76
2022/07/06 10:04:54;;;;;;;7.85;3.78;;;;;;;;;;4965033;28;20029;-76
2022/07/06 10:07:23;;;;;;;9.57;3.60;;;;;;;;;;4968383;28;20447;-73
2022/07/06 10:09:51;;;;;;;6.00;3.33;;;;;;;;;;4976533;28;20026;-72
2022/07/06 10:12:18;;;;;;;10.68;3.47;;;;;;;;;;4973736;28;20425;-72
2022/07/06 10:14:44;;;;;;;14.75;4.00;;;;;;;;;;4965638;28;20023;-73
2022/07/06 10:17:12;;;;;;;4.28;3.40;;;;;;;;;;4964215;28;20061;-73
2022/07/06 10:19:38;;;;;;;7.22;3.65;;;;;;;;;;4973335;28;20038;-73
2022/07/06 10:22:04;;;;;;;8.05;4.13;;;;;;;;;;4975711;28;20381;-72
2022/07/06 10:24:34;;;;;;;8.35;3.65;;;;;;;;;;4975433;28;20029;-73
2022/07/06 10:26:59;;;;;;;5.68;3.33;;;;;;;;;;4974797;28;20128;-73
2022/07/06 10:29:25;;;;;;;6.18;4.38;;;;;;;;;;4975223;28;20114;-74
2022/07/06 10:31:53;;;;;;;9.07;3.40;;;;;;;;;;4971292;28;20039;-76
2022/07/06 10:34:20;;;;;;;5.65;3.47;;;;;;;;;;4954843;28;20028;-72
2022/07/06 10:36:51;;;;;;;7.40;3.72;;;;;;;;;;4953582;28;20036;-72
2022/07/06 10:42:42;;;;;;;5.38;3.40;;;;;;;;;;4956736;28;20046;-71
2022/07/06 10:45:10;;;;;;;4.95;3.30;;;;;;;;;;4968576;28;20089;-72
2022/07/06 10:47:38;;;;;;;5.45;3.50;;;;;;;;;;4959916;28;20088;-72
2022/07/06 10:50:05;;;;;;;11.93;3.90;;;;;;;;;;4975456;28;20043;-72
2022/07/06 10:52:57;;;;;;;6.95;3.33;;;;;;;;;;4975734;28;20156;-73
2022/07/06 10:55:37;;;;;;;14.90;3.60;;;;;;;;;;4974552;28;20046;-72
2022/07/06 10:58:04;;;;;;;4.97;3.53;;;;;;;;;;4964694;28;20034;-73
2022/07/06 11:00:48;;;;;;;4.70;3.03;;;;;;;;;;4958694;28;20039;-72
2022/07/06 11:03:33;;;;;;;6.85;3.00;;;;;;;;;;4974554;28;20147;-71
2022/07/06 11:06:09;;;;;;;7.68;3.58;;;;;;;;;;4994272;28;20121;-71
2022/07/06 11:08:47;;;;;;;7.82;3.35;;;;;;;;;;4993912;28;20041;-71
2022/07/06 11:11:21;;;;;;;7.13;3.45;;;;;;;;;;4965120;28;20076;-73
2022/07/06 11:13:59;;;;;;;7.38;3.67;;;;;;;;;;4963517;28;20035;-71
2022/07/06 11:16:27;;;;;;;8.40;3.58;;;;;;;;;;4956405;28;20106;-75
2022/07/06 11:19:09;;;;;;;9.88;3.33;;;;;;;;;;4964718;28;20465;-73
2022/07/06 11:21:58;;;;;;;6.20;2.92;;;;;;;;;;4981999;28;20039;-72
2022/07/06 11:24:29;;;;;;;9.23;3.45;;;;;;;;;;4971433;28;20085;-73
2022/07/06 11:26:57;;;;;;;7.20;3.28;;;;;;;;;;4956015;28;20039;-71
2022/07/06 11:29:25;;;;;;;10.52;3.13;;;;;;;;;;4955890;29;20027;-71
2022/07/06 11:31:53;;;;;;;4.25;3.10;;;;;;;;;;4956982;29;20117;-72
2022/07/06 11:34:24;;;;;;;7.32;3.03;;;;;;;;;;4958694;29;20019;-70
2022/07/06 11:37:01;;;;;;;3.83;2.75;;;;;;;;;;4971519;28;20039;-72
2022/07/06 11:39:35;;;;;;;6.45;2.85;;;;;;;;;;4975202;28;20082;-70
2022/07/06 11:42:03;;;;;;;10.40;3.85;;;;;;;;;;4974926;28;20034;-71
2022/07/06 11:44:30;;;;;;;4.70;2.95;;;;;;;;;;4974415;28;20603;-73
2022/07/06 11:46:58;;;;;;;5.43;3.05;;;;;;;;;;4974827;28;20026;-72
2022/07/06 11:49:23;;;;;;;5.13;3.20;;;;;;;;;;4959223;28;20572;-70
2022/07/06 11:51:49;;;;;;;6.55;3.22;;;;;;;;;;4957514;28;20040;-70
2022/07/06 11:54:20;;;;;;;6.97;3.30;;;;;;;;;;4974515;28;20042;-70
2022/07/06 11:57:00;;;;;;;5.43;2.95;;;;;;;;;;4968780;28;20066;-72
2022/07/06 11:59:28;;;;;;;6.88;3.20;;;;;;;;;;4955744;29;20491;-72
2022/07/06 12:02:05;;;;;;;6.20;3.28;;;;;;;;;;4963501;28;20046;-71
2022/07/06 12:04:33;;;;;;;5.75;3.50;;;;;;;;;;4973688;28;20482;-71
2022/07/06 12:07:05;;;;;;;7.28;3.50;;;;;;;;;;4968528;28;20406;-71
2022/07/06 12:09:32;;;;;;;7.55;3.40;;;;;;;;;;4956984;28;20106;-71
2022/07/06 12:12:02;;;;;;;7.80;3.22;;;;;;;;;;4955261;29;20055;-70
2022/07/06 12:14:28;;;;;;;10.00;6.75;;;;;;;;;;4954792;28;20031;-70
2022/07/06 12:16:54;;;;;;;5.43;3.10;;;;;;;;;;4961202;28;20470;-71
2022/07/06 12:19:22;;;;;;;5.97;3.30;;;;;;;;;;4973763;28;20043;-71
2022/07/06 12:21:50;;;;;;;5.40;3.60;;;;;;;;;;4974212;28;20227;-71
2022/07/06 12:24:20;;;;;;;4.97;3.25;;;;;;;;;;4974240;28;20066;-71
2022/07/06 12:26:47;;;;;;;7.20;4.20;;;;;;;;;;4964092;28;20038;-69
2022/07/06 12:29:14;;;;;;;4.53;3.30;;;;;;;;;;4958249;28;20058;-72
2022/07/06 12:31:44;;;;;;;7.35;4.90;;;;;;;;;;4968472;28;20043;-70
2022/07/06 12:34:14;;;;;;;10.30;3.88;;;;;;;;;;4968241;28;20035;-70
2022/07/06 12:36:44;;;;;;;9.32;3.78;;;;;;;;;;4956295;28;20100;-72
2022/07/06 12:39:12;;;;;;;5.55;3.47;;;;;;;;;;4970576;28;20037;-72
2022/07/06 12:41:44;;;;;;;6.57;3.70;;;;;;;;;;4968163;28;20037;-72
2022/07/06 12:44:10;;;;;;;7.75;3.90;;;;;;;;;;4974839;28;20070;-71
2022/07/06 12:46:41;;;;;;;7.88;3.45;;;;;;;;;;4974368;28;20027;-72
2022/07/06 12:49:34;;;;;;;7.65;3.85;;;;;;;;;;4974358;28;20035;-74
2022/07/06 12:52:02;;;;;;;7.15;3.60;;;;;;;;;;4961735;28;20047;-74
2022/07/06 12:54:33;;;;;;;5.38;3.70;;;;;;;;;;4962035;28;20162;-71
2022/07/06 12:57:03;;;;;;;6.68;4.15;;;;;;;;;;4966152;28;20046;-73
2022/07/06 12:59:30;;;;;;;8.55;3.88;;;;;;;;;;4965116;28;20033;-71
2022/07/06 13:01:57;;;;;;;7.10;3.80;;;;;;;;;;4974281;28;20042;-73
2022/07/06 13:04:24;;;;;;;8.05;3.33;;;;;;;;;;4958389;28;20027;-75
2022/07/06 13:06:51;;;;;;;7.72;3.53;;;;;;;;;;4967933;28;20035;-74
2022/07/06 13:09:18;;;;;;;5.38;3.47;;;;;;;;;;4972715;28;20037;-76
2022/07/06 13:11:48;;;;;;;7.30;3.78;;;;;;;;;;4973491;28;20089;-72
2022/07/06 13:14:16;;;;;;;7.50;3.53;;;;;;;;;;4973900;28;20057;-72
2022/07/06 13:16:43;;;;;;;5.28;3.08;;;;;;;;;;4973880;28;20494;-70
2022/07/06 13:19:09;;;;;;;8.45;3.67;;;;;;;;;;4973827;28;20481;-75
2022/07/06 13:21:35;;;;;;;5.35;3.55;;;;;;;;;;4966783;28;20026;-73
2022/07/06 13:24:02;;;;;;;4.43;3.28;;;;;;;;;;4970020;28;20038;-76
2022/07/06 13:26:28;;;;;;;7.88;3.40;;;;;;;;;;4964910;28;20074;-75
2022/07/06 13:28:54;;;;;;;5.20;3.05;;;;;;;;;;4954505;29;20497;-70
2022/07/06 13:31:20;;;;;;;7.80;3.50;;;;;;;;;;4954185;28;20059;-75
2022/07/06 13:33:46;;;;;;;7.30;3.40;;;;;;;;;;4953558;28;20031;-71
2022/07/06 13:36:12;;;;;;;7.22;3.67;;;;;;;;;;4954185;28;20031;-70
2022/07/06 13:38:38;;;;;;;5.00;3.08;;;;;;;;;;4954492;28;20122;-71
2022/07/06 13:41:03;;;;;;;9.63;3.53;;;;;;;;;;4960437;28;20038;-69
2022/07/06 13:43:35;;;;;;;8.50;3.30;;;;;;;;;;4970379;28;20062;-71
2022/07/06 13:46:03;;;;;;;4.88;3.40;;;;;;;;;;4973442;28;20041;-69
2022/07/06 13:48:30;;;;;;;4.97;3.33;;;;;;;;;;4959053;28;20082;-71
2022/07/06 13:50:56;;;;;;;5.72;3.40;;;;;;;;;;4954009;28;20039;-68
2022/07/06 13:53:22;;;;;;;6.60;3.45;;;;;;;;;;4953712;28;20031;-69
2022/07/06 13:55:48;;;;;;;6.20;3.08;;;;;;;;;;4953803;28;20126;-72
2022/07/06 13:58:14;;;;;;;4.78;3.45;;;;;;;;;;4958692;28;20110;-70
2022/07/06 14:00:41;;;;;;;8.55;3.30;;;;;;;;;;4972119;28;20034;-71
2022/07/06 14:03:08;;;;;;;5.85;3.50;;;;;;;;;;4969858;28;20034;-70
2022/07/06 14:05:34;;;;;;;6.25;3.17;;;;;;;;;;4962171;28;20031;-69
2022/07/06 14:08:00;;;;;;;4.72;3.53;;;;;;;;;;4953298;28;20538;-73
2022/07/06 14:10:27;;;;;;;5.55;2.90;;;;;;;;;;4954954;28;20129;-73
2022/07/06 14:12:52;;;;;;;5.75;2.90;;;;;;;;;;4966576;28;20028;-74
2022/07/06 14:15:19;;;;;;;6.30;3.00;;;;;;;;;;4960137;28;20544;-72
2022/07/06 14:17:44;;;;;;;6.40;3.38;;;;;;;;;;4958956;28;20102;-71
2022/07/06 14:20:11;;;;;;;7.95;4.53;;;;;;;;;;4972784;28;20102;-71
2022/07/06 14:22:37;;;;;;;5.03;3.13;;;;;;;;;;4967606;28;20066;-71
2022/07/06 14:25:05;;;;;;;3.90;2.88;;;;;;;;;;4961344;28;20043;-71
2022/07/06 14:27:31;;;;;;;5.63;3.10;;;;;;;;;;4960027;28;20339;-72
2022/07/06 14:29:56;;;;;;;7.10;2.78;;;;;;;;;;4961027;28;20033;-70
2022/07/06 14:32:22;;;;;;;5.03;2.60;;;;;;;;;;4962529;28;20015;-73
2022/07/06 14:34:48;;;;;;;9.68;2.70;;;;;;;;;;4961209;28;20475;-73
2022/07/06 14:37:14;;;;;;;5.97;2.97;;;;;;;;;;4960183;28;20054;-76
2022/07/06 14:39:40;;;;;;;4.80;3.13;;;;;;;;;;4961707;28;20082;-74
2022/07/06 14:42:06;;;;;;;5.10;3.28;;;;;;;;;;4969888;28;20031;-72
2022/07/06 14:44:31;;;;;;;5.38;2.97;;;;;;;;;;4973482;28;20035;-71
2022/07/06 14:46:57;;;;;;;5.72;3.38;;;;;;;;;;4976095;28;20106;-74
2022/07/06 14:49:23;;;;;;;9.05;3.22;;;;;;;;;;4975622;28;20041;-74